createdAt,value
2019-04-07T22:00:37.182Z,40.80
2019-04-07T22:03:23.937Z,40.73
2019-04-07T22:06:03.567Z,40.56
2019-04-07T22:08:42.127Z,40.63
2019-04-07T22:11:11.808Z,40.76
2019-04-07T22:13:43.021Z,40.72
2019-04-07T22:16:14.362Z,40.84
2019-04-07T22:18:45.708Z,40.87
2019-04-07T22:21:17.115Z,41.01
2019-04-07T22:23:48.563Z,41.05
2019-04-07T22:26:20.420Z,41.20
2019-04-07T22:28:52.485Z,41.09
2019-04-07T22:31:29.571Z,41.25
2019-04-07T22:34:03.255Z,41.38
2019-04-07T22:36:33.892Z,41.50
2019-04-07T22:39:06.338Z,41.51
2019-04-07T22:41:41.225Z,41.70
2019-04-07T22:44:11.357Z,41.84
2019-04-07T22:46:43.864Z,42.03
2019-04-07T22:49:15.595Z,41.98
2019-04-07T22:51:49.413Z,42.08
2019-04-07T22:54:20.204Z,42.23
2019-04-07T22:56:52.254Z,42.51
2019-04-07T22:59:23.936Z,42.58
2019-04-07T23:01:57.710Z,42.71
2019-04-07T23:04:39.283Z,42.93
2019-04-07T23:07:09.402Z,43.26
2019-04-07T23:09:41.725Z,43.33
2019-04-07T23:12:14.741Z,43.38
2019-04-07T23:14:46.141Z,43.63
2019-04-07T23:17:17.640Z,43.67
2019-04-07T23:19:48.783Z,43.72
2019-04-07T23:22:20.188Z,43.67
2019-04-07T23:24:51.414Z,43.81
2019-04-07T23:27:22.818Z,44.06
2019-04-07T23:29:54.859Z,44.06
2019-04-07T23:32:26.427Z,44.09
2019-04-07T23:34:59.658Z,44.21
2019-04-07T23:37:30.940Z,44.39
2019-04-07T23:40:02.485Z,44.49
2019-04-07T23:42:33.970Z,44.56
2019-04-07T23:45:06.964Z,44.48
2019-04-07T23:47:38.643Z,44.56
2019-04-07T23:50:11.153Z,44.53
2019-04-07T23:52:43.341Z,44.63
2019-04-07T23:55:14.958Z,44.68
2019-04-07T23:57:46.524Z,44.61
